sensor_id;sensor_type;location;lat;lon;timestamp;P1;durP1;ratioP1;P2;durP2;ratioP2
21862;SDS011;11096;51.338;12.524;2022-12-18T00:00:46;33.88;;;14.60;;
21862;SDS011;11096;51.338;12.524;2022-12-18T00:03:16;32.28;;;14.43;;
21862;SDS011;11096;51.338;12.524;2022-12-18T00:05:48;41.00;;;14.57;;
21862;SDS011;11096;51.338;12.524;2022-12-18T00:08:14;44.40;;;16.75;;
21862;SDS011;11096;51.338;12.524;2022-12-18T00:10:40;36.72;;;15.15;;
21862;SDS011;11096;51.338;12.524;2022-12-18T00:13:06;41.22;;;17.17;;
21862;SDS011;11096;51.338;12.524;2022-12-18T00:15:33;36.53;;;15.52;;
21862;SDS011;11096;51.338;12.524;2022-12-18T00:17:59;35.08;;;14.27;;
21862;SDS011;11096;51.338;12.524;2022-12-18T00:20:24;36.43;;;13.40;;
21862;SDS011;11096;51.338;12.524;2022-12-18T00:22:51;32.95;;;14.43;;
21862;SDS011;11096;51.338;12.524;2022-12-18T00:25:17;40.28;;;15.35;;
21862;SDS011;11096;51.338;12.524;2022-12-18T00:27:42;31.73;;;14.18;;
21862;SDS011;11096;51.338;12.524;2022-12-18T00:30:08;35.95;;;13.73;;
21862;SDS011;11096;51.338;12.524;2022-12-18T00:32:34;30.17;;;13.47;;
21862;SDS011;11096;51.338;12.524;2022-12-18T00:34:59;40.33;;;15.45;;
21862;SDS011;11096;51.338;12.524;2022-12-18T00:37:25;41.97;;;15.93;;
21862;SDS011;11096;51.338;12.524;2022-12-18T00:39:50;32.13;;;13.07;;
21862;SDS011;11096;51.338;12.524;2022-12-18T00:42:15;41.63;;;14.20;;
21862;SDS011;11096;51.338;12.524;2022-12-18T00:44:59;38.70;;;14.73;;
21862;SDS011;11096;51.338;12.524;2022-12-18T00:47:25;36.10;;;14.25;;
21862;SDS011;11096;51.338;12.524;2022-12-18T00:49:50;41.30;;;15.32;;
21862;SDS011;11096;51.338;12.524;2022-12-18T00:52:15;48.90;;;18.35;;
21862;SDS011;11096;51.338;12.524;2022-12-18T00:54:41;41.83;;;15.57;;
21862;SDS011;11096;51.338;12.524;2022-12-18T00:57:06;31.42;;;15.73;;
21862;SDS011;11096;51.338;12.524;2022-12-18T00:59:32;35.88;;;15.50;;
21862;SDS011;11096;51.338;12.524;2022-12-18T01:01:57;49.58;;;16.42;;
21862;SDS011;11096;51.338;12.524;2022-12-18T01:04:22;37.97;;;16.27;;
21862;SDS011;11096;51.338;12.524;2022-12-18T01:06:48;35.73;;;15.03;;
21862;SDS011;11096;51.338;12.524;2022-12-18T01:09:13;48.65;;;17.63;;
21862;SDS011;11096;51.338;12.524;2022-12-18T01:11:39;36.70;;;13.97;;
21862;SDS011;11096;51.338;12.524;2022-12-18T01:14:05;40.03;;;16.53;;
21862;SDS011;11096;51.338;12.524;2022-12-18T01:16:30;33.92;;;13.35;;
21862;SDS011;11096;51.338;12.524;2022-12-18T01:18:56;45.42;;;16.80;;
21862;SDS011;11096;51.338;12.524;2022-12-18T01:21:22;37.03;;;15.38;;
21862;SDS011;11096;51.338;12.524;2022-12-18T01:23:51;39.20;;;15.37;;
21862;SDS011;11096;51.338;12.524;2022-12-18T01:26:17;37.65;;;15.27;;
21862;SDS011;11096;51.338;12.524;2022-12-18T01:28:42;44.20;;;15.40;;
21862;SDS011;11096;51.338;12.524;2022-12-18T01:31:10;35.22;;;14.20;;
21862;SDS011;11096;51.338;12.524;2022-12-18T01:33:40;27.60;;;13.88;;
21862;SDS011;11096;51.338;12.524;2022-12-18T01:36:06;37.27;;;15.10;;
21862;SDS011;11096;51.338;12.524;2022-12-18T01:38:32;30.48;;;13.70;;
21862;SDS011;11096;51.338;12.524;2022-12-18T01:40:58;34.40;;;12.40;;
21862;SDS011;11096;51.338;12.524;2022-12-18T01:43:46;37.83;;;12.73;;
21862;SDS011;11096;51.338;12.524;2022-12-18T01:46:11;32.87;;;11.27;;
21862;SDS011;11096;51.338;12.524;2022-12-18T01:48:37;27.90;;;12.77;;
21862;SDS011;11096;51.338;12.524;2022-12-18T01:51:04;30.67;;;13.85;;
21862;SDS011;11096;51.338;12.524;2022-12-18T01:53:31;31.40;;;12.33;;
21862;SDS011;11096;51.338;12.524;2022-12-18T01:55:57;32.97;;;11.77;;
21862;SDS011;11096;51.338;12.524;2022-12-18T02:01:11;29.73;;;12.38;;
21862;SDS011;11096;51.338;12.524;2022-12-18T02:03:37;30.35;;;12.77;;
21862;SDS011;11096;51.338;12.524;2022-12-18T02:06:23;28.23;;;10.73;;
21862;SDS011;11096;51.338;12.524;2022-12-18T02:09:09;29.10;;;11.17;;
21862;SDS011;11096;51.338;12.524;2022-12-18T02:14:24;34.00;;;13.60;;
21862;SDS011;11096;51.338;12.524;2022-12-18T02:17:01;29.23;;;13.43;;
21862;SDS011;11096;51.338;12.524;2022-12-18T02:27:29;25.55;;;11.25;;
21862;SDS011;11096;51.338;12.524;2022-12-18T02:29:57;20.08;;;10.25;;
21862;SDS011;11096;51.338;12.524;2022-12-18T02:32:36;28.57;;;11.93;;
21862;SDS011;11096;51.338;12.524;2022-12-18T02:35:05;25.10;;;11.47;;
21862;SDS011;11096;51.338;12.524;2022-12-18T02:37:33;30.17;;;11.80;;
21862;SDS011;11096;51.338;12.524;2022-12-18T02:40:01;33.17;;;12.33;;
21862;SDS011;11096;51.338;12.524;2022-12-18T02:42:28;36.63;;;12.67;;
21862;SDS011;11096;51.338;12.524;2022-12-18T02:44:54;24.65;;;10.85;;
21862;SDS011;11096;51.338;12.524;2022-12-18T02:47:20;24.50;;;10.55;;
21862;SDS011;11096;51.338;12.524;2022-12-18T02:54:56;29.00;;;12.50;;
21862;SDS011;11096;51.338;12.524;2022-12-18T02:57:47;25.60;;;10.05;;
21862;SDS011;11096;51.338;12.524;2022-12-18T03:00:19;26.03;;;11.50;;
21862;SDS011;11096;51.338;12.524;2022-12-18T03:02:48;21.83;;;10.65;;
21862;SDS011;11096;51.338;12.524;2022-12-18T03:05:24;24.53;;;11.47;;
21862;SDS011;11096;51.338;12.524;2022-12-18T03:08:07;28.13;;;11.52;;
21862;SDS011;11096;51.338;12.524;2022-12-18T03:10:49;32.53;;;10.53;;
21862;SDS011;11096;51.338;12.524;2022-12-18T03:13:26;26.10;;;11.40;;
21862;SDS011;11096;51.338;12.524;2022-12-18T03:15:56;25.30;;;11.30;;
21862;SDS011;11096;51.338;12.524;2022-12-18T03:18:34;25.30;;;11.15;;
21862;SDS011;11096;51.338;12.524;2022-12-18T03:21:05;31.08;;;11.55;;
21862;SDS011;11096;51.338;12.524;2022-12-18T03:23:34;19.95;;;10.60;;
21862;SDS011;11096;51.338;12.524;2022-12-18T03:26:05;34.13;;;12.23;;
21862;SDS011;11096;51.338;12.524;2022-12-18T03:28:35;23.02;;;10.80;;
21862;SDS011;11096;51.338;12.524;2022-12-18T03:31:04;26.38;;;11.40;;
21862;SDS011;11096;51.338;12.524;2022-12-18T03:33:35;20.08;;;10.35;;
21862;SDS011;11096;51.338;12.524;2022-12-18T03:36:01;26.60;;;11.73;;
21862;SDS011;11096;51.338;12.524;2022-12-18T03:38:27;22.92;;;11.25;;
21862;SDS011;11096;51.338;12.524;2022-12-18T03:40:56;29.02;;;10.75;;
21862;SDS011;11096;51.338;12.524;2022-12-18T03:46:02;25.20;;;12.45;;
21862;SDS011;11096;51.338;12.524;2022-12-18T03:48:35;22.00;;;10.10;;
21862;SDS011;11096;51.338;12.524;2022-12-18T03:51:06;24.83;;;11.75;;
21862;SDS011;11096;51.338;12.524;2022-12-18T03:56:25;27.95;;;10.18;;
21862;SDS011;11096;51.338;12.524;2022-12-18T03:58:54;30.52;;;11.65;;
21862;SDS011;11096;51.338;12.524;2022-12-18T04:01:24;24.63;;;11.18;;
21862;SDS011;11096;51.338;12.524;2022-12-18T04:03:55;19.90;;;9.90;;
21862;SDS011;11096;51.338;12.524;2022-12-18T04:06:24;25.27;;;10.48;;
21862;SDS011;11096;51.338;12.524;2022-12-18T04:08:50;25.60;;;11.55;;
21862;SDS011;11096;51.338;12.524;2022-12-18T04:11:15;23.00;;;10.45;;
21862;SDS011;11096;51.338;12.524;2022-12-18T04:13:41;30.47;;;9.83;;
21862;SDS011;11096;51.338;12.524;2022-12-18T04:16:07;31.80;;;12.13;;
21862;SDS011;11096;51.338;12.524;2022-12-18T04:18:34;25.13;;;11.52;;
21862;SDS011;11096;51.338;12.524;2022-12-18T04:21:00;27.30;;;11.77;;
21862;SDS011;11096;51.338;12.524;2022-12-18T04:23:26;24.20;;;10.77;;
21862;SDS011;11096;51.338;12.524;2022-12-18T04:25:51;29.42;;;10.88;;
21862;SDS011;11096;51.338;12.524;2022-12-18T04:28:17;23.85;;;10.98;;
21862;SDS011;11096;51.338;12.524;2022-12-18T04:30:42;29.10;;;11.38;;
21862;SDS011;11096;51.338;12.524;2022-12-18T04:33:08;25.35;;;10.45;;
21862;SDS011;11096;51.338;12.524;2022-12-18T04:35:35;22.00;;;10.38;;
21862;SDS011;11096;51.338;12.524;2022-12-18T04:38:00;22.87;;;10.40;;
21862;SDS011;11096;51.338;12.524;2022-12-18T04:40:26;19.13;;;9.82;;
21862;SDS011;11096;51.338;12.524;2022-12-18T04:42:51;24.30;;;10.27;;
21862;SDS011;11096;51.338;12.524;2022-12-18T04:45:17;27.43;;;11.57;;
21862;SDS011;11096;51.338;12.524;2022-12-18T04:47:42;20.27;;;8.33;;
21862;SDS011;11096;51.338;12.524;2022-12-18T04:50:07;21.40;;;9.97;;
21862;SDS011;11096;51.338;12.524;2022-12-18T04:52:33;25.00;;;10.57;;
21862;SDS011;11096;51.338;12.524;2022-12-18T04:54:58;28.17;;;9.97;;
21862;SDS011;11096;51.338;12.524;2022-12-18T04:57:24;19.13;;;9.83;;
21862;SDS011;11096;51.338;12.524;2022-12-18T04:59:49;25.60;;;11.40;;
21862;SDS011;11096;51.338;12.524;2022-12-18T05:02:14;24.65;;;10.48;;
21862;SDS011;11096;51.338;12.524;2022-12-18T05:04:40;27.13;;;11.93;;
21862;SDS011;11096;51.338;12.524;2022-12-18T05:07:05;27.65;;;10.05;;
21862;SDS011;11096;51.338;12.524;2022-12-18T05:09:31;31.02;;;11.70;;
21862;SDS011;11096;51.338;12.524;2022-12-18T05:11:56;23.67;;;9.70;;
21862;SDS011;11096;51.338;12.524;2022-12-18T05:14:21;24.60;;;10.73;;
21862;SDS011;11096;51.338;12.524;2022-12-18T05:16:47;19.67;;;9.80;;
21862;SDS011;11096;51.338;12.524;2022-12-18T05:19:12;21.97;;;9.17;;
21862;SDS011;11096;51.338;12.524;2022-12-18T05:21:37;17.00;;;9.03;;
21862;SDS011;11096;51.338;12.524;2022-12-18T05:24:03;21.77;;;9.35;;
21862;SDS011;11096;51.338;12.524;2022-12-18T05:26:28;24.63;;;10.73;;
21862;SDS011;11096;51.338;12.524;2022-12-18T05:28:54;20.37;;;8.77;;
21862;SDS011;11096;51.338;12.524;2022-12-18T05:31:19;20.13;;;9.47;;
21862;SDS011;11096;51.338;12.524;2022-12-18T05:33:45;23.00;;;9.97;;
21862;SDS011;11096;51.338;12.524;2022-12-18T05:36:10;23.20;;;9.43;;
21862;SDS011;11096;51.338;12.524;2022-12-18T05:38:37;19.70;;;8.20;;
21862;SDS011;11096;51.338;12.524;2022-12-18T05:41:03;14.20;;;7.37;;
21862;SDS011;11096;51.338;12.524;2022-12-18T05:43:30;18.17;;;8.20;;
21862;SDS011;11096;51.338;12.524;2022-12-18T05:45:56;14.93;;;7.73;;
21862;SDS011;11096;51.338;12.524;2022-12-18T05:48:22;22.17;;;8.90;;
21862;SDS011;11096;51.338;12.524;2022-12-18T05:50:48;17.50;;;8.73;;
21862;SDS011;11096;51.338;12.524;2022-12-18T05:53:16;24.43;;;9.60;;
21862;SDS011;11096;51.338;12.524;2022-12-18T05:55:44;21.43;;;8.80;;
21862;SDS011;11096;51.338;12.524;2022-12-18T05:58:11;20.00;;;9.23;;
21862;SDS011;11096;51.338;12.524;2022-12-18T06:00:39;16.60;;;8.30;;
21862;SDS011;11096;51.338;12.524;2022-12-18T06:03:09;19.63;;;8.37;;
21862;SDS011;11096;51.338;12.524;2022-12-18T06:05:36;13.67;;;7.37;;
21862;SDS011;11096;51.338;12.524;2022-12-18T06:08:03;23.00;;;8.57;;
21862;SDS011;11096;51.338;12.524;2022-12-18T06:10:29;18.90;;;6.93;;
21862;SDS011;11096;51.338;12.524;2022-12-18T06:12:55;17.77;;;8.70;;
21862;SDS011;11096;51.338;12.524;2022-12-18T06:15:20;23.50;;;8.77;;
21862;SDS011;11096;51.338;12.524;2022-12-18T06:17:45;17.60;;;8.33;;
21862;SDS011;11096;51.338;12.524;2022-12-18T06:20:11;17.93;;;8.10;;
21862;SDS011;11096;51.338;12.524;2022-12-18T06:22:36;17.53;;;8.57;;
21862;SDS011;11096;51.338;12.524;2022-12-18T06:25:01;18.03;;;8.30;;
21862;SDS011;11096;51.338;12.524;2022-12-18T06:27:27;17.60;;;7.70;;
21862;SDS011;11096;51.338;12.524;2022-12-18T06:29:52;18.90;;;8.07;;
21862;SDS011;11096;51.338;12.524;2022-12-18T06:32:18;19.10;;;7.83;;
21862;SDS011;11096;51.338;12.524;2022-12-18T06:34:43;13.77;;;6.53;;
21862;SDS011;11096;51.338;12.524;2022-12-18T06:37:09;16.03;;;7.77;;
21862;SDS011;11096;51.338;12.524;2022-12-18T06:39:34;18.53;;;7.03;;
21862;SDS011;11096;51.338;12.524;2022-12-18T06:41:59;18.17;;;8.60;;
21862;SDS011;11096;51.338;12.524;2022-12-18T06:44:25;21.43;;;9.77;;
21862;SDS011;11096;51.338;12.524;2022-12-18T06:46:50;18.00;;;7.93;;
21862;SDS011;11096;51.338;12.524;2022-12-18T06:49:15;15.60;;;8.67;;
21862;SDS011;11096;51.338;12.524;2022-12-18T06:51:41;20.10;;;9.47;;
21862;SDS011;11096;51.338;12.524;2022-12-18T06:54:07;17.60;;;7.80;;
21862;SDS011;11096;51.338;12.524;2022-12-18T06:56:33;20.43;;;8.53;;
21862;SDS011;11096;51.338;12.524;2022-12-18T06:58:58;16.77;;;8.63;;
21862;SDS011;11096;51.338;12.524;2022-12-18T07:01:24;14.00;;;7.43;;
21862;SDS011;11096;51.338;12.524;2022-12-18T07:03:53;22.47;;;8.40;;
21862;SDS011;11096;51.338;12.524;2022-12-18T07:06:21;18.83;;;8.10;;
21862;SDS011;11096;51.338;12.524;2022-12-18T07:08:48;16.23;;;7.70;;
21862;SDS011;11096;51.338;12.524;2022-12-18T07:11:15;18.73;;;7.03;;
21862;SDS011;11096;51.338;12.524;2022-12-18T07:13:41;18.50;;;7.53;;
21862;SDS011;11096;51.338;12.524;2022-12-18T07:16:08;18.43;;;7.17;;
21862;SDS011;11096;51.338;12.524;2022-12-18T07:18:35;19.40;;;7.87;;
21862;SDS011;11096;51.338;12.524;2022-12-18T07:21:20;18.50;;;8.47;;
21862;SDS011;11096;51.338;12.524;2022-12-18T07:23:46;19.80;;;7.07;;
21862;SDS011;11096;51.338;12.524;2022-12-18T07:26:13;14.93;;;7.73;;
21862;SDS011;11096;51.338;12.524;2022-12-18T07:28:40;14.60;;;7.37;;
21862;SDS011;11096;51.338;12.524;2022-12-18T07:31:07;16.90;;;6.67;;
21862;SDS011;11096;51.338;12.524;2022-12-18T07:33:34;17.70;;;8.20;;
21862;SDS011;11096;51.338;12.524;2022-12-18T07:36:00;13.40;;;7.00;;
21862;SDS011;11096;51.338;12.524;2022-12-18T07:38:29;20.10;;;8.20;;
21862;SDS011;11096;51.338;12.524;2022-12-18T07:40:59;17.40;;;8.33;;
21862;SDS011;11096;51.338;12.524;2022-12-18T07:43:26;15.47;;;8.93;;
21862;SDS011;11096;51.338;12.524;2022-12-18T07:45:52;21.50;;;9.50;;
21862;SDS011;11096;51.338;12.524;2022-12-18T07:48:17;17.08;;;7.72;;
21862;SDS011;11096;51.338;12.524;2022-12-18T07:50:42;17.77;;;8.67;;
21862;SDS011;11096;51.338;12.524;2022-12-18T07:53:08;24.50;;;9.43;;
21862;SDS011;11096;51.338;12.524;2022-12-18T07:55:33;20.53;;;9.43;;
21862;SDS011;11096;51.338;12.524;2022-12-18T07:58:02;17.63;;;8.37;;
21862;SDS011;11096;51.338;12.524;2022-12-18T08:00:29;21.57;;;8.80;;
21862;SDS011;11096;51.338;12.524;2022-12-18T08:02:55;19.00;;;8.63;;
21862;SDS011;11096;51.338;12.524;2022-12-18T08:05:20;23.85;;;8.48;;
21862;SDS011;11096;51.338;12.524;2022-12-18T08:07:46;16.73;;;7.97;;
21862;SDS011;11096;51.338;12.524;2022-12-18T08:10:12;20.10;;;8.75;;
21862;SDS011;11096;51.338;12.524;2022-12-18T08:12:37;22.57;;;9.13;;
21862;SDS011;11096;51.338;12.524;2022-12-18T08:15:03;19.17;;;9.00;;
21862;SDS011;11096;51.338;12.524;2022-12-18T08:17:28;19.20;;;7.60;;
21862;SDS011;11096;51.338;12.524;2022-12-18T08:19:54;21.80;;;8.85;;
21862;SDS011;11096;51.338;12.524;2022-12-18T08:22:19;17.25;;;6.70;;
21862;SDS011;11096;51.338;12.524;2022-12-18T08:24:45;19.63;;;8.63;;
21862;SDS011;11096;51.338;12.524;2022-12-18T08:27:10;19.47;;;8.80;;
21862;SDS011;11096;51.338;12.524;2022-12-18T08:29:35;19.67;;;8.17;;
21862;SDS011;11096;51.338;12.524;2022-12-18T08:32:01;15.95;;;7.82;;
21862;SDS011;11096;51.338;12.524;2022-12-18T08:34:26;16.55;;;8.05;;
21862;SDS011;11096;51.338;12.524;2022-12-18T08:36:52;20.63;;;7.35;;
21862;SDS011;11096;51.338;12.524;2022-12-18T08:39:17;19.48;;;7.78;;
21862;SDS011;11096;51.338;12.524;2022-12-18T08:41:42;18.23;;;6.78;;
21862;SDS011;11096;51.338;12.524;2022-12-18T08:44:28;15.80;;;7.15;;
21862;SDS011;11096;51.338;12.524;2022-12-18T08:47:02;18.02;;;7.50;;
21862;SDS011;11096;51.338;12.524;2022-12-18T08:49:28;15.45;;;8.10;;
21862;SDS011;11096;51.338;12.524;2022-12-18T08:51:54;17.10;;;6.97;;
21862;SDS011;11096;51.338;12.524;2022-12-18T08:54:22;18.45;;;7.72;;
21862;SDS011;11096;51.338;12.524;2022-12-18T08:56:47;17.73;;;7.57;;
21862;SDS011;11096;51.338;12.524;2022-12-18T08:59:13;17.65;;;7.40;;
21862;SDS011;11096;51.338;12.524;2022-12-18T09:01:38;12.90;;;6.78;;
21862;SDS011;11096;51.338;12.524;2022-12-18T09:04:03;13.82;;;7.43;;
21862;SDS011;11096;51.338;12.524;2022-12-18T09:06:29;13.65;;;7.75;;
21862;SDS011;11096;51.338;12.524;2022-12-18T09:08:54;16.45;;;7.45;;
21862;SDS011;11096;51.338;12.524;2022-12-18T09:13:50;16.77;;;7.55;;
21862;SDS011;11096;51.338;12.524;2022-12-18T09:16:16;17.70;;;7.13;;
21862;SDS011;11096;51.338;12.524;2022-12-18T09:18:42;13.07;;;7.18;;
21862;SDS011;11096;51.338;12.524;2022-12-18T09:21:08;10.05;;;5.95;;
21862;SDS011;11096;51.338;12.524;2022-12-18T09:23:38;13.15;;;6.90;;
21862;SDS011;11096;51.338;12.524;2022-12-18T09:26:04;17.40;;;5.93;;
21862;SDS011;11096;51.338;12.524;2022-12-18T09:28:30;14.80;;;6.00;;
21862;SDS011;11096;51.338;12.524;2022-12-18T09:30:55;12.05;;;5.18;;
21862;SDS011;11096;51.338;12.524;2022-12-18T09:33:21;11.98;;;6.00;;
21862;SDS011;11096;51.338;12.524;2022-12-18T09:35:46;8.98;;;4.75;;
21862;SDS011;11096;51.338;12.524;2022-12-18T09:38:13;13.57;;;5.70;;
21862;SDS011;11096;51.338;12.524;2022-12-18T09:40:44;10.93;;;5.78;;
21862;SDS011;11096;51.338;12.524;2022-12-18T09:43:47;12.48;;;5.57;;
21862;SDS011;11096;51.338;12.524;2022-12-18T09:46:16;15.88;;;6.30;;
21862;SDS011;11096;51.338;12.524;2022-12-18T09:48:46;10.68;;;5.40;;
21862;SDS011;11096;51.338;12.524;2022-12-18T09:51:17;15.93;;;6.03;;
21862;SDS011;11096;51.338;12.524;2022-12-18T09:53:50;9.00;;;4.75;;
21862;SDS011;11096;51.338;12.524;2022-12-18T09:56:20;14.02;;;7.00;;
21862;SDS011;11096;51.338;12.524;2022-12-18T10:01:18;18.67;;;7.25;;
21862;SDS011;11096;51.338;12.524;2022-12-18T10:03:47;14.05;;;7.00;;
21862;SDS011;11096;51.338;12.524;2022-12-18T10:06:15;14.55;;;7.15;;
21862;SDS011;11096;51.338;12.524;2022-12-18T10:08:49;14.25;;;7.55;;
21862;SDS011;11096;51.338;12.524;2022-12-18T10:16:54;20.58;;;8.02;;
21862;SDS011;11096;51.338;12.524;2022-12-18T10:19:28;19.20;;;8.70;;
21862;SDS011;11096;51.338;12.524;2022-12-18T10:27:47;15.93;;;8.07;;
21862;SDS011;11096;51.338;12.524;2022-12-18T10:30:17;15.80;;;8.05;;
21862;SDS011;11096;51.338;12.524;2022-12-18T10:32:45;16.17;;;8.10;;
21862;SDS011;11096;51.338;12.524;2022-12-18T10:35:20;20.70;;;8.27;;
21862;SDS011;11096;51.338;12.524;2022-12-18T10:40:26;20.00;;;7.75;;
21862;SDS011;11096;51.338;12.524;2022-12-18T10:45:37;20.77;;;8.40;;
21862;SDS011;11096;51.338;12.524;2022-12-18T10:48:03;15.38;;;7.75;;
21862;SDS011;11096;51.338;12.524;2022-12-18T10:50:30;10.82;;;5.55;;
21862;SDS011;11096;51.338;12.524;2022-12-18T10:52:58;14.23;;;5.55;;
21862;SDS011;11096;51.338;12.524;2022-12-18T10:55:32;10.27;;;5.45;;
21862;SDS011;11096;51.338;12.524;2022-12-18T11:00:44;11.02;;;5.30;;
21862;SDS011;11096;51.338;12.524;2022-12-18T11:03:29;12.85;;;5.35;;
21862;SDS011;11096;51.338;12.524;2022-12-18T11:06:22;11.05;;;4.80;;
21862;SDS011;11096;51.338;12.524;2022-12-18T11:09:02;15.05;;;5.30;;
21862;SDS011;11096;51.338;12.524;2022-12-18T11:11:29;11.68;;;4.82;;
21862;SDS011;11096;51.338;12.524;2022-12-18T11:16:34;10.88;;;5.47;;
21862;SDS011;11096;51.338;12.524;2022-12-18T11:21:55;12.02;;;5.65;;
21862;SDS011;11096;51.338;12.524;2022-12-18T11:24:36;10.57;;;5.57;;
21862;SDS011;11096;51.338;12.524;2022-12-18T11:27:02;12.13;;;5.70;;
21862;SDS011;11096;51.338;12.524;2022-12-18T11:29:32;12.93;;;6.35;;
21862;SDS011;11096;51.338;12.524;2022-12-18T11:34:39;8.90;;;5.32;;
21862;SDS011;11096;51.338;12.524;2022-12-18T11:37:07;12.70;;;6.00;;
21862;SDS011;11096;51.338;12.524;2022-12-18T11:39:37;11.65;;;6.28;;
21862;SDS011;11096;51.338;12.524;2022-12-18T11:42:04;11.75;;;6.30;;
21862;SDS011;11096;51.338;12.524;2022-12-18T11:50:21;14.07;;;6.45;;
21862;SDS011;11096;51.338;12.524;2022-12-18T11:52:51;12.52;;;6.28;;
21862;SDS011;11096;51.338;12.524;2022-12-18T11:55:27;11.05;;;6.15;;
21862;SDS011;11096;51.338;12.524;2022-12-18T11:58:17;10.48;;;6.15;;
21862;SDS011;11096;51.338;12.524;2022-12-18T12:01:07;10.57;;;6.03;;
21862;SDS011;11096;51.338;12.524;2022-12-18T12:09:45;13.65;;;6.43;;
21862;SDS011;11096;51.338;12.524;2022-12-18T12:26:17;13.38;;;5.85;;
21862;SDS011;11096;51.338;12.524;2022-12-18T12:34:23;14.02;;;7.13;;
21862;SDS011;11096;51.338;12.524;2022-12-18T12:39:22;15.05;;;6.45;;
21862;SDS011;11096;51.338;12.524;2022-12-18T12:41:55;14.48;;;6.13;;
21862;SDS011;11096;51.338;12.524;2022-12-18T12:44:45;12.57;;;6.53;;
21862;SDS011;11096;51.338;12.524;2022-12-18T12:47:21;13.30;;;7.05;;
21862;SDS011;11096;51.338;12.524;2022-12-18T12:49:51;15.20;;;6.65;;
21862;SDS011;11096;51.338;12.524;2022-12-18T12:52:34;17.75;;;7.50;;
21862;SDS011;11096;51.338;12.524;2022-12-18T12:55:05;14.30;;;6.32;;
21862;SDS011;11096;51.338;12.524;2022-12-18T12:57:43;12.93;;;6.60;;
21862;SDS011;11096;51.338;12.524;2022-12-18T13:00:17;14.82;;;6.28;;
21862;SDS011;11096;51.338;12.524;2022-12-18T13:05:49;14.82;;;6.95;;
21862;SDS011;11096;51.338;12.524;2022-12-18T13:08:24;12.65;;;6.75;;
21862;SDS011;11096;51.338;12.524;2022-12-18T13:10:52;14.45;;;8.18;;
21862;SDS011;11096;51.338;12.524;2022-12-18T13:13:54;17.40;;;8.30;;
21862;SDS011;11096;51.338;12.524;2022-12-18T13:16:21;17.77;;;8.30;;
21862;SDS011;11096;51.338;12.524;2022-12-18T13:18:49;15.30;;;7.88;;
21862;SDS011;11096;51.338;12.524;2022-12-18T13:21:29;19.27;;;8.43;;
21862;SDS011;11096;51.338;12.524;2022-12-18T13:23:57;18.38;;;8.50;;
21862;SDS011;11096;51.338;12.524;2022-12-18T13:26:40;16.45;;;7.85;;
21862;SDS011;11096;51.338;12.524;2022-12-18T13:29:06;21.70;;;9.13;;
21862;SDS011;11096;51.338;12.524;2022-12-18T13:34:19;16.70;;;8.35;;
21862;SDS011;11096;51.338;12.524;2022-12-18T13:36:46;16.38;;;8.32;;
21862;SDS011;11096;51.338;12.524;2022-12-18T13:41:54;18.45;;;8.60;;
21862;SDS011;11096;51.338;12.524;2022-12-18T13:44:58;16.60;;;8.02;;
21862;SDS011;11096;51.338;12.524;2022-12-18T13:47:28;19.63;;;8.70;;
21862;SDS011;11096;51.338;12.524;2022-12-18T13:49:58;19.95;;;8.20;;
21862;SDS011;11096;51.338;12.524;2022-12-18T13:52:25;19.70;;;8.38;;
21862;SDS011;11096;51.338;12.524;2022-12-18T13:54:54;16.40;;;7.72;;
21862;SDS011;11096;51.338;12.524;2022-12-18T13:57:31;17.95;;;7.63;;
21862;SDS011;11096;51.338;12.524;2022-12-18T14:02:44;17.98;;;8.75;;
21862;SDS011;11096;51.338;12.524;2022-12-18T14:07:49;18.30;;;8.82;;
21862;SDS011;11096;51.338;12.524;2022-12-18T14:10:15;15.00;;;8.82;;
21862;SDS011;11096;51.338;12.524;2022-12-18T14:12:44;18.33;;;9.05;;
21862;SDS011;11096;51.338;12.524;2022-12-18T14:17:52;22.65;;;9.13;;
21862;SDS011;11096;51.338;12.524;2022-12-18T14:20:20;18.30;;;8.82;;
21862;SDS011;11096;51.338;12.524;2022-12-18T14:22:48;20.58;;;9.18;;
21862;SDS011;11096;51.338;12.524;2022-12-18T14:25:24;18.67;;;8.95;;
21862;SDS011;11096;51.338;12.524;2022-12-18T14:27:52;14.68;;;8.77;;
21862;SDS011;11096;51.338;12.524;2022-12-18T14:30:27;19.30;;;9.40;;
21862;SDS011;11096;51.338;12.524;2022-12-18T14:36:05;19.73;;;8.32;;
21862;SDS011;11096;51.338;12.524;2022-12-18T14:38:31;17.75;;;8.90;;
21862;SDS011;11096;51.338;12.524;2022-12-18T14:40:58;21.30;;;9.60;;
21862;SDS011;11096;51.338;12.524;2022-12-18T14:43:26;20.73;;;8.40;;
21862;SDS011;11096;51.338;12.524;2022-12-18T14:45:52;25.08;;;9.38;;
21862;SDS011;11096;51.338;12.524;2022-12-18T14:48:20;20.38;;;8.90;;
21862;SDS011;11096;51.338;12.524;2022-12-18T14:53:29;21.80;;;10.38;;
21862;SDS011;11096;51.338;12.524;2022-12-18T14:56:00;26.67;;;10.30;;
21862;SDS011;11096;51.338;12.524;2022-12-18T14:58:27;19.45;;;8.68;;
21862;SDS011;11096;51.338;12.524;2022-12-18T15:00:52;16.83;;;7.63;;
21862;SDS011;11096;51.338;12.524;2022-12-18T15:03:18;19.30;;;8.77;;
21862;SDS011;11096;51.338;12.524;2022-12-18T15:05:45;20.23;;;8.35;;
21862;SDS011;11096;51.338;12.524;2022-12-18T15:08:32;18.92;;;8.10;;
21862;SDS011;11096;51.338;12.524;2022-12-18T15:11:00;17.23;;;8.32;;
21862;SDS011;11096;51.338;12.524;2022-12-18T15:13:26;21.83;;;8.85;;
21862;SDS011;11096;51.338;12.524;2022-12-18T15:15:56;22.67;;;8.05;;
21862;SDS011;11096;51.338;12.524;2022-12-18T15:18:30;22.70;;;8.57;;
21862;SDS011;11096;51.338;12.524;2022-12-18T15:21:03;19.67;;;8.90;;
21862;SDS011;11096;51.338;12.524;2022-12-18T15:26:08;24.70;;;9.85;;
21862;SDS011;11096;51.338;12.524;2022-12-18T15:28:45;31.58;;;9.77;;
21862;SDS011;11096;51.338;12.524;2022-12-18T15:31:22;26.67;;;9.75;;
21862;SDS011;11096;51.338;12.524;2022-12-18T15:36:21;27.52;;;9.88;;
21862;SDS011;11096;51.338;12.524;2022-12-18T15:38:52;24.35;;;10.48;;
21862;SDS011;11096;51.338;12.524;2022-12-18T15:41:20;22.08;;;9.70;;
21862;SDS011;11096;51.338;12.524;2022-12-18T15:43:50;20.33;;;9.45;;
21862;SDS011;11096;51.338;12.524;2022-12-18T15:46:21;22.67;;;8.73;;
21862;SDS011;11096;51.338;12.524;2022-12-18T15:48:51;20.48;;;9.68;;
21862;SDS011;11096;51.338;12.524;2022-12-18T15:53:50;24.80;;;9.85;;
21862;SDS011;11096;51.338;12.524;2022-12-18T15:56:18;20.95;;;9.52;;
21862;SDS011;11096;51.338;12.524;2022-12-18T15:59:04;20.45;;;9.07;;
21862;SDS011;11096;51.338;12.524;2022-12-18T16:01:35;21.77;;;10.45;;
21862;SDS011;11096;51.338;12.524;2022-12-18T16:04:01;28.08;;;9.68;;
21862;SDS011;11096;51.338;12.524;2022-12-18T16:06:26;25.23;;;9.07;;
21862;SDS011;11096;51.338;12.524;2022-12-18T16:08:52;27.10;;;10.05;;
21862;SDS011;11096;51.338;12.524;2022-12-18T16:11:22;24.35;;;9.80;;
21862;SDS011;11096;51.338;12.524;2022-12-18T16:16:43;24.30;;;10.27;;
21862;SDS011;11096;51.338;12.524;2022-12-18T16:19:08;24.63;;;9.77;;
21862;SDS011;11096;51.338;12.524;2022-12-18T16:21:33;25.88;;;11.13;;
21862;SDS011;11096;51.338;12.524;2022-12-18T16:23:59;20.45;;;10.13;;
21862;SDS011;11096;51.338;12.524;2022-12-18T16:26:24;23.10;;;10.30;;
21862;SDS011;11096;51.338;12.524;2022-12-18T16:28:49;23.27;;;9.73;;